AirNav   Everest Fuels
 
 1428 users online  

0AR0 SMH Heliport
Springdale, Arkansas, USA

GOING TO SPRINGDALE?


FAA INFORMATION EFFECTIVE 18 JULY 2019

Location

FAA Identifier: 0AR0
Lat/Long: 36-10-53.2790N / 094-08-13.7310W
36-10.887983N / 094-08.228850W
36.1814664 / -94.1371475
(estimated)
Elevation: 1352 ft. / 412 m (estimated)
Variation: 05E (1985)
Time zone: UTC -5 (UTC -6 during Standard Time)
Zip code: 72764

Heliport Operations

Heliport use: Private use, MEDICAL.
Activation date: 05/1989
Control tower: no
ARTCC: MEMPHIS CENTER
FSS: JONESBORO FLIGHT SERVICE STATION
Attendance: UNATNDD
Wind indicator: yes
Segmented circle: no
Lights: SS-SR

Heliport Communications

WX AWOS-3 at ASG (0.9 nm E): 124.675 (479-750-2967)
WX ASOS at XNA (10 nm NW): 119.425 (479-203-0109)
WX AWOS-3PT at VBT (11 nm N): 134.975 (479-273-9198)
WX ASOS at FYV (11 nm S): 119.575 (479-442-5237)
WX AWOS-3PT at ROG (12 nm N): 134.375 (479-631-9196)
WX AWOS-3PT at SLG (17 nm W): 118.375 (479-524-9893)

Nearby radio navigation aids

VOR radial/distance  VOR name  Freq  Var
RZCr187/4.0RAZORBACK VORTAC116.4004E

 
NDB name  Hdg/Dist  Freq  Var  ID
SILOAM SPRINGS088/17.028404ESLG ... .-.. --.

Heliport Services

Runway Information

Helipad H1

Dimensions: 60 x 60 ft. / 18 x 18 m
Surface: asphalt
Runway edge lights: PERI
ALSO FLOOD LGTS.
Latitude: 36-10.887983N
Longitude: 094-08.228850W
Elevation: 1352.0 ft.
Traffic pattern: leftleft

Heliport Ownership and Management from official FAA records

Ownership: Privately-owned
Owner: NORTHWEST MEDICAL CNTR - SPRINGDALE
607 MAPLE
SPRINGDALE, AR 72764
Phone (479) 751-5711
Manager: PHIL DAVIS
607 MAPLE
SPRINGDALE, AR 72764
Phone (479) 757-4601

Heliport Operational Statistics

Aircraft based on the field: 1
Helicopters: 1
    

Additional Remarks

FOR CD CTC MEMPHIS ARTCC AT 901-368-8453.

Instrument Procedures

There are no published instrument procedures at 0AR0.

Some nearby airports with instrument procedures:

KASG - Springdale Municipal Airport (1 nm E)
KXNA - Northwest Arkansas Regional Airport (10 nm NW)
KVBT - Bentonville Municipal Airport/Louise M Thaden Field (11 nm N)
KFYV - Drake Field Airport (11 nm S)
KROG - Rogers Executive Airport - Carter Field (12 nm N)
KSLG - Smith Field Airport (17 nm W)
5M5 - Crystal Lake Airport (18 nm NW)
H34 - Huntsville Municipal Airport (20 nm E)
 
Loc | Ops | Rwys | IFR | FBO | Links
Com | Nav | Svcs | Stats | Notes

Branson Jet Center
AirBoss

 
Area around 0AR0 (SMH Heliport)
 
Road maps at: MapQuest Bing Google
 
Aerial photo
No photo
 
Sectional chart

 
Airport distance calculator
Flying to SMH Heliport? Find the distance to fly.

From to 0AR0

Sunrise and sunset
Times for 17-Jul-2019
 Local
(UTC-5)
 Zulu
(UTC)
Morning civil twilight05:4410:44
Sunrise06:1311:13
Sunset20:3201:32
Evening civil twilight21:0202:02

Current date and time
Zulu (UTC)  17-Jul-2019 13:35:11
Local (UTC-5)  17-Jul-2019 08:35:11
 
METAR
KASG 171248Z 20011KT 10SM CLR 27/26 A3003
KXNA 
10nm NW 
171253Z 19007KT 10SM CLR 26/22 A3002 RMK AO2 SLP146 T02610222
KFYV 
10nm S 
171253Z 21009KT 10SM CLR 27/24 A3002 RMK AO2 SLP149 T02670239
KVBT 
11nm N 
171256Z AUTO 20007KT 10SM CLR 27/23 A3003 RMK AO2 SLP157 T02670233
KROG 
11nm N 
171258Z 21009KT 10SM CLR 27/23 A3002 RMK AO2 SLP149 T02720228 PNO $
KSLG 
16nm W 
171256Z AUTO 10SM CLR 26/23 A3002 RMK AO2 SLP151 T02610233
TAF
KXNA 
10nm NW 
171120Z 1712/1812 19004KT P6SM SCT250 FM171500 20012G20KT P6SM FEW040 FM180100 19006KT P6SM SKC
KFYV 
10nm S 
171120Z 1712/1812 20003KT P6SM SCT250 FM171500 20012G20KT P6SM FEW040 FM180100 19006KT P6SM SKC
KROG 
11nm N 
171120Z 1712/1812 18005KT P6SM SCT250 FM171500 20012G20KT P6SM FEW040 FM180100 18007KT P6SM SKC
NOTAMs
Click for the latest NOTAMs
NOTAMs are issued by the DoD/FAA and will open in a separate window not controlled by AirNav.

 

 
 

Would you like to see your business listed on this page?

 If your business provides an interesting product or service to pilots, flight crews, aircraft, or users of the SMH Heliport, you should consider listing it here.  To start the listing process, click on the button below
 
Add a business
 

Other Pages about SMH Heliport

Update a link
 
Copyright © AirNav, LLC. All rights reserved. Privacy Policy  Contact